createdAt,value
2022-09-20T00:01:10.657Z,2.10
2022-09-20T00:03:40.031Z,1.73
2022-09-20T00:06:09.385Z,1.50
2022-09-20T00:08:36.151Z,1.90
2022-09-20T00:11:04.999Z,1.73
2022-09-20T00:13:31.862Z,1.60
2022-09-20T00:15:59.241Z,1.90
2022-09-20T00:18:26.972Z,1.90
2022-09-20T00:20:53.643Z,1.80
2022-09-20T00:23:20.796Z,1.80
2022-09-20T00:25:56.031Z,2.20
2022-09-20T00:28:22.945Z,1.95
2022-09-20T00:30:49.582Z,1.88
2022-09-20T00:33:16.215Z,2.00
2022-09-20T00:35:46.266Z,1.92
2022-09-20T00:38:16.391Z,2.10
2022-09-20T00:40:46.184Z,2.13
2022-09-20T00:43:17.256Z,2.17
2022-09-20T00:45:49.988Z,2.70
2022-09-20T00:48:27.521Z,2.90
2022-09-20T00:51:01.638Z,2.60
2022-09-20T00:53:32.190Z,3.03
2022-09-20T00:56:05.731Z,2.83
2022-09-20T00:58:37.982Z,2.67
2022-09-20T01:01:05.166Z,2.60
2022-09-20T01:03:33.394Z,2.35
2022-09-20T01:06:03.561Z,2.70
2022-09-20T01:08:31.674Z,2.20
2022-09-20T01:10:58.700Z,2.45
2022-09-20T01:13:25.422Z,2.47
2022-09-20T01:15:52.811Z,2.30
2022-09-20T01:18:19.880Z,2.42
2022-09-20T01:20:47.756Z,2.30
2022-09-20T01:23:43.754Z,2.10
2022-09-20T01:26:23.149Z,2.20
2022-09-20T01:28:55.758Z,2.35
2022-09-20T01:31:28.817Z,2.70
2022-09-20T01:34:01.268Z,2.47
2022-09-20T01:36:39.547Z,2.40
2022-09-20T01:39:24.878Z,2.20
2022-09-20T01:41:57.994Z,2.30
2022-09-20T01:45:00.129Z,2.30
2022-09-20T01:47:46.418Z,1.92
2022-09-20T01:50:35.822Z,2.15
2022-09-20T01:53:22.193Z,2.00
2022-09-20T01:56:35.659Z,2.17
2022-09-20T01:59:23.737Z,2.15
2022-09-20T02:02:20.303Z,2.20
2022-09-20T02:05:27.533Z,2.83
2022-09-20T02:08:32.064Z,1.90
2022-09-20T02:11:05.979Z,1.90
2022-09-20T02:14:05.094Z,2.08
2022-09-20T02:16:50.940Z,1.90
2022-09-20T02:19:36.243Z,2.25
2022-09-20T02:22:32.301Z,1.80
2022-09-20T02:25:08.623Z,2.00
2022-09-20T02:28:24.545Z,2.00
2022-09-20T02:31:11.260Z,2.30
2022-09-20T02:33:53.112Z,2.28
2022-09-20T02:36:47.695Z,2.30
2022-09-20T02:39:21.171Z,2.28
2022-09-20T02:42:11.345Z,1.90
2022-09-20T02:44:53.674Z,2.10
2022-09-20T02:47:25.264Z,2.50
2022-09-20T02:49:57.670Z,2.10
2022-09-20T02:52:54.676Z,2.08
2022-09-20T02:55:55.405Z,2.13
2022-09-20T02:58:49.547Z,1.90
2022-09-20T03:01:39.414Z,2.23
2022-09-20T03:04:22.580Z,2.17
2022-09-20T03:07:28.207Z,2.00
2022-09-20T03:10:11.512Z,2.17
2022-09-20T03:13:19.043Z,1.95
2022-09-20T03:15:55.907Z,1.90
2022-09-20T03:18:35.334Z,1.90
2022-09-20T03:21:28.633Z,2.20
2022-09-20T03:24:27.804Z,1.90
2022-09-20T03:27:37.072Z,1.90
2022-09-20T03:33:34.075Z,2.08
2022-09-20T03:36:28.914Z,1.98
2022-09-20T03:39:06.540Z,1.90
2022-09-20T03:41:56.983Z,1.90
2022-09-20T03:44:41.032Z,1.70
2022-09-20T03:47:43.662Z,1.92
2022-09-20T03:50:17.485Z,2.10
2022-09-20T03:53:10.259Z,2.00
2022-09-20T03:56:15.367Z,1.60
2022-09-20T03:59:10.934Z,1.80
2022-09-20T04:02:11.919Z,1.55
2022-09-20T04:04:54.243Z,1.75
2022-09-20T04:10:47.110Z,1.70
2022-09-20T04:13:35.492Z,1.90
2022-09-20T04:16:17.621Z,1.63
2022-09-20T04:19:29.637Z,1.77
2022-09-20T04:22:00.999Z,1.93
2022-09-20T04:24:30.664Z,1.55
2022-09-20T04:27:01.700Z,1.58
2022-09-20T04:29:53.268Z,1.80
2022-09-20T04:32:25.973Z,1.70
2022-09-20T04:35:24.795Z,1.77
2022-09-20T04:37:52.140Z,1.80
2022-09-20T04:41:04.202Z,2.08
2022-09-20T04:43:42.474Z,1.60
2022-09-20T04:46:47.455Z,2.00
2022-09-20T04:49:43.061Z,1.77
2022-09-20T04:52:46.955Z,1.63
2022-09-20T04:55:37.521Z,2.10
2022-09-20T04:58:33.298Z,1.70
2022-09-20T05:01:37.240Z,1.70
2022-09-20T05:04:41.387Z,2.08
2022-09-20T05:07:49.683Z,1.90
2022-09-20T05:10:54.394Z,2.08
2022-09-20T05:13:55.507Z,1.90
2022-09-20T05:16:32.793Z,2.20
2022-09-20T05:19:38.257Z,2.17
2022-09-20T05:22:43.450Z,2.25
2022-09-20T05:25:37.962Z,1.77
2022-09-20T05:28:19.499Z,1.85
2022-09-20T05:31:02.721Z,1.98
2022-09-20T05:33:55.368Z,1.90
2022-09-20T05:37:09.797Z,1.92
2022-09-20T05:39:43.122Z,1.90
2022-09-20T05:42:24.413Z,2.57
2022-09-20T05:45:23.957Z,2.10
2022-09-20T05:48:12.566Z,1.80
2022-09-20T05:50:55.551Z,1.77
2022-09-20T05:53:53.626Z,1.80
2022-09-20T05:56:39.151Z,2.10
2022-09-20T05:59:17.494Z,2.03
2022-09-20T06:02:08.694Z,1.75
2022-09-20T06:05:08.861Z,2.35
2022-09-20T06:08:04.900Z,2.30
2022-09-20T06:11:02.601Z,2.10
2022-09-20T06:13:50.180Z,2.60
2022-09-20T06:16:46.730Z,2.83
2022-09-20T06:19:58.185Z,2.78
2022-09-20T06:22:52.035Z,3.00
2022-09-20T06:25:26.443Z,2.90
2022-09-20T06:27:56.782Z,3.10
2022-09-20T06:30:27.518Z,2.67
2022-09-20T06:33:10.729Z,3.47
2022-09-20T06:35:40.576Z,3.40
2022-09-20T06:38:39.452Z,3.22
2022-09-20T06:41:26.592Z,3.20
2022-09-20T06:43:53.263Z,3.45
2022-09-20T06:46:19.927Z,2.60
2022-09-20T06:48:47.452Z,3.00
2022-09-20T06:51:14.156Z,2.72
2022-09-20T06:53:41.449Z,2.65
2022-09-20T06:56:09.991Z,2.83
2022-09-20T06:58:36.616Z,2.55
2022-09-20T07:01:03.397Z,2.40
2022-09-20T07:03:31.897Z,2.63
2022-09-20T07:06:00.756Z,2.47
2022-09-20T07:08:27.452Z,2.38
2022-09-20T07:10:54.805Z,2.25
2022-09-20T07:13:21.593Z,2.58
2022-09-20T07:15:48.357Z,2.70
2022-09-20T07:18:15.018Z,2.53
2022-09-20T07:20:42.019Z,2.85
2022-09-20T07:23:08.744Z,2.75
2022-09-20T07:25:36.828Z,3.10
2022-09-20T07:28:03.448Z,3.85
2022-09-20T07:30:30.072Z,2.90
2022-09-20T07:32:56.742Z,2.70
2022-09-20T07:35:23.590Z,3.33
2022-09-20T07:37:56.673Z,4.25
2022-09-20T07:40:23.474Z,3.85
2022-09-20T07:42:53.087Z,2.40
2022-09-20T07:45:24.169Z,2.38
2022-09-20T07:47:50.771Z,3.10
2022-09-20T07:50:17.494Z,2.63
2022-09-20T07:52:44.276Z,2.33
2022-09-20T07:55:10.917Z,3.00
2022-09-20T07:57:38.287Z,2.20
2022-09-20T08:00:07.895Z,2.40
2022-09-20T08:02:34.644Z,2.08
2022-09-20T08:05:01.619Z,2.42
2022-09-20T08:07:29.426Z,1.70
2022-09-20T08:09:56.116Z,2.00
2022-09-20T08:15:12.071Z,1.52
2022-09-20T08:17:40.443Z,1.77
2022-09-20T08:20:08.056Z,1.50
2022-09-20T08:22:34.998Z,1.63
2022-09-20T08:25:01.558Z,1.25
2022-09-20T08:27:28.293Z,1.50
2022-09-20T08:29:57.499Z,1.73
2022-09-20T08:32:24.216Z,1.58
2022-09-20T08:34:50.775Z,1.63
2022-09-20T08:37:17.324Z,1.60
2022-09-20T08:39:59.649Z,1.23
2022-09-20T08:42:39.059Z,1.38
2022-09-20T08:45:33.698Z,2.03
2022-09-20T08:48:05.800Z,2.30
2022-09-20T08:50:34.785Z,2.65
2022-09-20T08:53:05.177Z,2.15
2022-09-20T08:55:39.958Z,2.60
2022-09-20T08:58:11.261Z,2.17
2022-09-20T09:00:39.386Z,2.20
2022-09-20T09:03:11.292Z,2.00
2022-09-20T09:05:43.561Z,2.33
2022-09-20T09:08:16.811Z,1.90
2022-09-20T09:10:55.061Z,1.80
2022-09-20T09:13:28.800Z,1.80
2022-09-20T09:16:07.712Z,1.80
2022-09-20T09:18:37.117Z,1.90
2022-09-20T09:21:05.173Z,1.98
2022-09-20T09:23:42.686Z,2.15
2022-09-20T09:26:36.361Z,1.92
2022-09-20T09:29:15.922Z,1.90
2022-09-20T09:31:45.231Z,1.70
2022-09-20T09:34:26.456Z,1.38
2022-09-20T09:36:54.664Z,1.90
2022-09-20T09:39:31.302Z,2.20
2022-09-20T09:42:01.559Z,2.00
2022-09-20T09:44:35.679Z,1.80
2022-09-20T09:47:02.543Z,1.95
2022-09-20T09:49:36.481Z,1.58
2022-09-20T09:52:24.843Z,1.90
2022-09-20T09:55:04.574Z,1.63
2022-09-20T09:57:55.939Z,1.50
2022-09-20T10:00:24.561Z,1.40
2022-09-20T10:03:11.004Z,1.70
2022-09-20T10:06:12.098Z,1.30
2022-09-20T10:08:57.228Z,1.95
2022-09-20T10:11:58.911Z,1.50
2022-09-20T10:14:48.635Z,1.70
2022-09-20T10:17:38.127Z,1.95
2022-09-20T10:20:53.362Z,1.88
2022-09-20T10:24:01.346Z,1.80
2022-09-20T10:26:49.154Z,1.80
2022-09-20T10:30:11.510Z,2.10
2022-09-20T10:32:51.030Z,2.03
2022-09-20T10:35:30.946Z,1.90
2022-09-20T10:38:16.783Z,1.63
2022-09-20T10:41:27.862Z,1.63
2022-09-20T10:44:38.934Z,12.82
2022-09-20T10:47:18.372Z,1.80
2022-09-20T10:50:05.213Z,1.70
2022-09-20T10:53:06.710Z,1.30
2022-09-20T10:56:24.342Z,1.33
2022-09-20T10:59:20.743Z,1.80
2022-09-20T11:02:02.375Z,1.30
2022-09-20T11:05:00.863Z,1.98
2022-09-20T11:07:45.870Z,1.65
2022-09-20T11:10:21.989Z,1.40
2022-09-20T11:12:53.898Z,1.15
2022-09-20T11:15:25.496Z,1.30
2022-09-20T11:18:14.253Z,1.75
2022-09-20T11:20:47.804Z,1.08
2022-09-20T11:23:19.255Z,1.20
2022-09-20T11:25:55.989Z,1.20
2022-09-20T11:28:44.164Z,1.00
2022-09-20T11:31:19.340Z,1.10
2022-09-20T11:33:52.650Z,1.13
2022-09-20T11:36:25.493Z,1.00
2022-09-20T11:38:57.267Z,1.10
2022-09-20T11:41:29.181Z,0.93
2022-09-20T11:44:00.631Z,1.10
2022-09-20T11:46:52.855Z,1.15
2022-09-20T11:49:45.201Z,1.00
2022-09-20T11:52:31.167Z,1.00
2022-09-20T11:55:10.996Z,1.20
2022-09-20T11:57:38.476Z,1.10
2022-09-20T12:00:08.116Z,1.25
2022-09-20T12:03:01.334Z,1.48
2022-09-20T12:05:34.133Z,1.70
2022-09-20T12:08:03.449Z,1.40
2022-09-20T12:10:36.863Z,1.38
2022-09-20T12:13:05.963Z,1.20
2022-09-20T12:15:39.683Z,1.25
2022-09-20T12:18:28.322Z,1.25
2022-09-20T12:21:06.025Z,1.25
2022-09-20T12:24:09.546Z,1.88
2022-09-20T12:26:37.408Z,1.17
2022-09-20T12:29:47.843Z,1.10
2022-09-20T12:32:33.289Z,1.48
2022-09-20T12:34:59.969Z,1.08
2022-09-20T12:37:27.147Z,1.27
2022-09-20T12:39:55.833Z,0.90
2022-09-20T12:42:33.120Z,0.60
2022-09-20T12:45:16.489Z,0.70
2022-09-20T12:47:51.799Z,0.68
2022-09-20T12:50:39.965Z,0.80
2022-09-20T12:53:13.017Z,1.00
2022-09-20T12:55:46.154Z,0.88
2022-09-20T12:58:25.203Z,0.75
2022-09-20T13:01:18.134Z,0.60
2022-09-20T13:03:51.055Z,0.80
2022-09-20T13:06:26.784Z,0.80
2022-09-20T13:09:08.756Z,0.70
2022-09-20T13:11:48.127Z,0.50
2022-09-20T13:14:18.814Z,0.65
2022-09-20T13:16:53.133Z,0.80
2022-09-20T13:22:03.208Z,0.90
2022-09-20T13:24:48.276Z,1.10
2022-09-20T13:27:27.717Z,0.50
2022-09-20T13:29:54.493Z,0.60
2022-09-20T13:32:29.818Z,0.50
2022-09-20T13:35:08.819Z,0.30
2022-09-20T13:37:37.648Z,0.30
2022-09-20T13:40:06.891Z,0.30
2022-09-20T13:42:36.736Z,0.35
2022-09-20T13:45:04.474Z,0.50
2022-09-20T13:47:32.573Z,0.60
2022-09-20T13:50:09.841Z,0.63
2022-09-20T13:52:48.375Z,0.50
2022-09-20T13:55:33.139Z,0.60
2022-09-20T13:58:03.197Z,0.52
2022-09-20T14:00:31.951Z,0.50
2022-09-20T14:02:59.562Z,0.60
2022-09-20T14:05:29.014Z,0.70
2022-09-20T14:07:56.915Z,0.85
2022-09-20T14:10:38.095Z,0.73
2022-09-20T14:13:09.759Z,0.70
2022-09-20T14:15:38.522Z,1.80
2022-09-20T14:18:07.959Z,2.10
2022-09-20T14:20:35.006Z,0.90
2022-09-20T14:23:01.911Z,1.35
2022-09-20T14:25:29.230Z,1.30
2022-09-20T14:28:07.453Z,1.42
2022-09-20T14:30:37.499Z,1.08
2022-09-20T14:33:06.247Z,1.40
2022-09-20T14:35:33.347Z,0.90
2022-09-20T14:38:05.784Z,1.10
2022-09-20T14:40:41.783Z,1.70
2022-09-20T14:43:34.855Z,3.75
2022-09-20T14:46:07.373Z,1.83
2022-09-20T14:48:41.237Z,1.08
2022-09-20T14:51:26.424Z,1.00
2022-09-20T14:54:24.736Z,1.05
2022-09-20T14:56:53.315Z,1.63
2022-09-20T14:59:30.875Z,1.42
2022-09-20T15:01:57.993Z,1.80
2022-09-20T15:04:28.737Z,1.65
2022-09-20T15:06:56.972Z,1.08
2022-09-20T15:09:28.503Z,1.60
2022-09-20T15:12:00.221Z,3.33
2022-09-20T15:14:26.897Z,0.90
2022-09-20T15:16:53.702Z,0.43
2022-09-20T15:19:20.829Z,0.60
2022-09-20T15:21:47.538Z,0.30
2022-09-20T15:24:14.787Z,0.90
2022-09-20T15:26:41.486Z,1.20
2022-09-20T15:29:10.153Z,0.65
2022-09-20T15:31:37.093Z,0.38
2022-09-20T15:34:06.651Z,1.50
2022-09-20T15:36:33.550Z,0.70
2022-09-20T15:39:00.470Z,0.57
2022-09-20T15:41:31.293Z,0.65
2022-09-20T15:43:59.257Z,0.50
2022-09-20T15:46:29.391Z,0.30
2022-09-20T15:49:00.598Z,0.50
2022-09-20T15:51:30.612Z,0.77
2022-09-20T15:54:00.406Z,0.52
2022-09-20T15:56:30.636Z,0.30
2022-09-20T15:58:59.723Z,2.75
2022-09-20T16:01:31.793Z,1.10
2022-09-20T16:03:59.066Z,0.98
2022-09-20T16:06:26.182Z,0.40
2022-09-20T16:08:53.110Z,0.20
2022-09-20T16:11:22.823Z,0.25
2022-09-20T16:13:54.676Z,0.50
2022-09-20T16:16:21.799Z,0.70
2022-09-20T16:19:07.576Z,1.33
2022-09-20T16:21:34.829Z,2.10
2022-09-20T16:24:01.931Z,1.50
2022-09-20T16:26:29.561Z,1.10
2022-09-20T16:28:56.402Z,0.93
2022-09-20T16:31:34.912Z,0.70
2022-09-20T16:34:04.081Z,0.88
2022-09-20T16:36:34.396Z,0.60
2022-09-20T16:39:01.352Z,1.38
2022-09-20T16:41:29.197Z,1.63
2022-09-20T16:43:56.584Z,1.50
2022-09-20T16:46:27.279Z,1.67
2022-09-20T16:48:59.609Z,2.00
2022-09-20T16:51:32.125Z,2.03
2022-09-20T16:54:01.267Z,1.70
2022-09-20T16:56:30.106Z,1.70
2022-09-20T16:58:57.032Z,2.40
2022-09-20T17:01:23.884Z,1.90
2022-09-20T17:03:51.678Z,2.00
2022-09-20T17:06:19.419Z,2.13
2022-09-20T17:08:46.971Z,2.20
2022-09-20T17:11:21.785Z,2.05
2022-09-20T17:13:51.649Z,2.50
2022-09-20T17:16:27.600Z,2.40
2022-09-20T17:18:56.391Z,2.42
2022-09-20T17:21:23.186Z,1.92
2022-09-20T17:23:55.237Z,2.03
2022-09-20T17:26:28.602Z,1.88
2022-09-20T17:28:58.339Z,1.80
2022-09-20T17:31:34.163Z,2.00
2022-09-20T17:34:02.738Z,1.90
2022-09-20T17:36:31.899Z,1.70
2022-09-20T17:39:04.121Z,1.50
2022-09-20T17:41:32.783Z,1.23
2022-09-20T17:44:01.107Z,2.25
2022-09-20T17:46:31.852Z,1.45
2022-09-20T17:49:04.030Z,1.50
2022-09-20T17:51:34.382Z,1.50
2022-09-20T17:54:01.650Z,1.80
2022-09-20T17:56:29.679Z,2.00
2022-09-20T17:59:00.714Z,2.50
2022-09-20T18:01:28.745Z,1.55
2022-09-20T18:03:57.409Z,1.70
2022-09-20T18:06:27.009Z,1.20
2022-09-20T18:08:55.762Z,1.08
2022-09-20T18:11:25.221Z,0.80
2022-09-20T18:13:52.229Z,1.27
2022-09-20T18:16:19.273Z,1.42
2022-09-20T18:18:46.975Z,1.15
2022-09-20T18:21:18.608Z,1.20
2022-09-20T18:23:46.273Z,2.08
2022-09-20T18:26:24.326Z,2.50
2022-09-20T18:28:55.538Z,2.80
2022-09-20T18:31:23.815Z,3.10
2022-09-20T18:33:54.979Z,2.83
2022-09-20T18:36:24.292Z,3.70
2022-09-20T18:38:54.942Z,4.40
2022-09-20T18:41:24.259Z,5.55
2022-09-20T18:43:51.735Z,7.65
2022-09-20T18:46:25.073Z,9.48
2022-09-20T18:48:53.060Z,9.23
2022-09-20T18:51:20.680Z,7.68
2022-09-20T18:53:48.134Z,5.93
2022-09-20T18:56:22.802Z,5.00
2022-09-20T18:58:54.776Z,4.40
2022-09-20T19:01:54.027Z,3.88
2022-09-20T19:05:00.069Z,4.75
2022-09-20T19:07:43.952Z,5.00
2022-09-20T19:10:38.188Z,6.13
2022-09-20T19:13:16.080Z,9.13
2022-09-20T19:16:01.550Z,7.68
2022-09-20T19:18:59.378Z,8.07
2022-09-20T19:22:05.549Z,1.25
2022-09-20T19:25:03.720Z,1.20
2022-09-20T19:27:30.804Z,1.10
2022-09-20T19:29:57.807Z,1.17
2022-09-20T19:32:26.533Z,1.10
2022-09-20T19:34:56.071Z,1.13
2022-09-20T19:37:30.982Z,1.05
2022-09-20T19:40:15.389Z,1.25
2022-09-20T19:43:05.650Z,1.30
2022-09-20T19:45:51.267Z,2.22
2022-09-20T19:48:28.960Z,2.70
2022-09-20T19:50:56.737Z,3.63
2022-09-20T19:53:28.993Z,2.78
2022-09-20T19:56:00.166Z,2.78
2022-09-20T19:58:27.258Z,1.85
2022-09-20T20:00:54.337Z,1.27
2022-09-20T20:03:23.796Z,0.88
2022-09-20T20:06:17.054Z,0.80
2022-09-20T20:09:03.978Z,1.00
2022-09-20T20:11:55.393Z,0.90
2022-09-20T20:14:25.174Z,0.98
2022-09-20T20:17:30.294Z,1.65
2022-09-20T20:20:20.395Z,2.35
2022-09-20T20:23:03.092Z,3.65
2022-09-20T20:26:17.776Z,3.22
2022-09-20T20:28:44.539Z,2.53
2022-09-20T20:31:12.568Z,3.00
2022-09-20T20:33:39.646Z,3.15
2022-09-20T20:36:09.120Z,3.10
2022-09-20T20:38:40.377Z,3.13
2022-09-20T20:41:11.877Z,3.50
2022-09-20T20:43:41.182Z,3.42
2022-09-20T20:46:10.241Z,3.22
2022-09-20T20:48:37.327Z,3.10
2022-09-20T20:51:27.451Z,2.80
2022-09-20T20:53:55.106Z,2.80
2022-09-20T20:56:25.995Z,2.45
2022-09-20T20:58:53.225Z,2.90
2022-09-20T21:01:21.925Z,3.70
2022-09-20T21:03:50.729Z,5.10
2022-09-20T21:06:18.065Z,4.80
2022-09-20T21:08:49.329Z,4.60
2022-09-20T21:11:23.701Z,5.70
2022-09-20T21:13:51.699Z,4.85
2022-09-20T21:16:20.921Z,4.97
2022-09-20T21:18:48.668Z,5.07
2022-09-20T21:21:43.732Z,5.20
2022-09-20T21:24:12.692Z,6.20
2022-09-20T21:26:40.013Z,7.05
2022-09-20T21:29:11.503Z,7.03
2022-09-20T21:31:40.292Z,5.40
2022-09-20T21:34:11.398Z,6.25
2022-09-20T21:36:39.374Z,5.80
2022-09-20T21:39:06.425Z,5.60
2022-09-20T21:41:35.620Z,6.32
2022-09-20T21:44:04.363Z,6.95
2022-09-20T21:46:36.416Z,6.03
2022-09-20T21:49:05.318Z,6.28
2022-09-20T21:51:33.092Z,6.82
2022-09-20T21:54:01.815Z,6.43
2022-09-20T21:56:33.876Z,6.70
2022-09-20T21:59:02.746Z,6.18
2022-09-20T22:01:33.839Z,6.22
2022-09-20T22:04:01.306Z,5.47
2022-09-20T22:06:31.479Z,6.10
2022-09-20T22:09:03.901Z,5.40
2022-09-20T22:11:32.753Z,4.93
2022-09-20T22:13:59.635Z,5.07
2022-09-20T22:16:28.454Z,5.03
2022-09-20T22:18:56.329Z,6.00
2022-09-20T22:21:34.819Z,8.70
2022-09-20T22:24:04.203Z,8.00
2022-09-20T22:26:34.306Z,7.85
2022-09-20T22:29:01.375Z,8.93
2022-09-20T22:31:32.987Z,8.93
2022-09-20T22:34:04.375Z,10.38
2022-09-20T22:36:34.304Z,10.35
2022-09-20T22:39:01.084Z,10.07
2022-09-20T22:41:28.256Z,10.88
2022-09-20T22:43:55.018Z,10.93
2022-09-20T22:46:23.996Z,10.43
2022-09-20T22:48:50.761Z,9.23
2022-09-20T22:51:19.255Z,7.93
2022-09-20T22:53:46.652Z,7.60
2022-09-20T22:56:18.847Z,6.88
2022-09-20T22:58:47.987Z,6.78
2022-09-20T23:01:17.796Z,6.68
2022-09-20T23:03:46.787Z,7.47
2022-09-20T23:06:22.105Z,6.65
2022-09-20T23:08:49.314Z,8.65
2022-09-20T23:11:16.670Z,8.45
2022-09-20T23:13:44.511Z,7.25
2022-09-20T23:16:18.695Z,6.95
2022-09-20T23:21:13.197Z,6.57
2022-09-20T23:23:41.840Z,6.93
2022-09-20T23:26:14.587Z,6.55
2022-09-20T23:28:43.026Z,6.55
2022-09-20T23:31:12.310Z,7.20
2022-09-20T23:33:41.575Z,6.10
2022-09-20T23:36:11.531Z,6.03
2022-09-20T23:38:38.369Z,5.50
2022-09-20T23:41:11.388Z,6.28
2022-09-20T23:43:38.557Z,6.13
2022-09-20T23:46:06.177Z,5.78
2022-09-20T23:48:33.458Z,5.50
2022-09-20T23:51:00.112Z,5.40
2022-09-20T23:53:27.065Z,5.88
2022-09-20T23:55:53.892Z,5.70
2022-09-20T23:58:20.787Z,5.65
